NCAR-RAP Real-Time Weather Data

Output produced by METARs form (08 May 2021  16:10 UTC)
found at http://weather.rap.ucar.edu/surface/
 
KTVL 081553Z AUTO 00000KT 8SM CLR 09/M08 A3021 RMK AO2 SLP203 T00891078
KTVL 081453Z AUTO VRB05KT 10SM CLR 05/M04 A3020 RMK AO2 SLP200 T00501039 51009
KTVL 081353Z AUTO 18005KT 10SM CLR 01/M04 A3019 RMK AO2 SLP200 T00111044
KTVL 081253Z AUTO 00000KT 10SM CLR M02/M05 A3018 RMK AO2 SLP197 T10171050
KTVL 081153Z AUTO VRB03KT 10SM CLR M01/M04 A3017 RMK AO2 SLP191 T10111044 10033 21017 57002
KTVL 081053Z AUTO 00000KT 10SM CLR M01/M04 A3017 RMK AO2 SLP190 T10061044
KTVL 080953Z AUTO 16004KT 10SM CLR M01/M04 A3017 RMK AO2 SLP189 T10061039
KTVL 080853Z AUTO 18005KT 10SM CLR 00/M04 A3017 RMK AO2 SLP189 T00001039 51007
KTVL 080753Z AUTO 20004KT 10SM CLR 01/M03 A3017 RMK AO2 SLP185 T00111033 401720006
KTVL 080653Z AUTO 00000KT 10SM CLR 03/M03 A3016 RMK AO2 SLP179 T00281033
KTVL 080553Z AUTO 17003KT 10SM CLR 03/M03 A3015 RMK AO2 SLP176 T00331028 10161 20033 51013
KTVL 080453Z AUTO 00000KT 10SM CLR 05/M03 A3015 RMK AO2 SLP173 T00501033
KTVL 080353Z AUTO 00000KT 10SM CLR 07/M05 A3012 RMK AO2 SLP165 T00671050